Time,TemperatureF,DewpointF,PressureIn,WindDirection,WindDirectionDegrees,WindSpeedMPH,WindSpeedGustMPH,Humidity,HourlyPrecipIn,Conditions,Clouds,dailyrainin,SoftwareType,DateUTC
2013-03-07 00:00:00,29.3,25.9,27.28,North,355,2.0,11.0,87,0.00,,,-99.99,Weather View 32 v60,2013-03-07 05:00:00,
2013-03-07 00:20:00,29.2,26.1,27.28,NW,325,5.0,11.0,88,0.00,,,-99.99,Weather View 32 v60,2013-03-07 05:20:00,
2013-03-07 00:40:00,29.3,26.2,27.28,NNW,333,5.0,10.0,88,0.00,,,-99.99,Weather View 32 v60,2013-03-07 05:40:00,
2013-03-07 01:00:00,29.3,26.2,27.28,NW,309,3.0,10.0,88,0.00,,,-99.99,Weather View 32 v60,2013-03-07 06:00:00,
2013-03-07 01:20:00,29.2,26.1,27.28,North,349,5.0,12.0,88,0.00,,,-99.99,Weather View 32 v60,2013-03-07 06:20:00,
2013-03-07 01:40:00,29.2,26.6,27.28,NNW,336,6.0,14.0,90,0.00,,,-99.99,Weather View 32 v60,2013-03-07 06:40:00,
2013-03-07 02:00:00,29.2,26.6,27.28,NNW,338,4.0,14.0,90,0.00,,,-99.99,Weather View 32 v60,2013-03-07 07:00:00,
2013-03-07 02:20:00,29.1,26.5,27.28,NNW,330,6.0,14.0,90,0.00,,,-99.99,Weather View 32 v60,2013-03-07 07:20:00,
2013-03-07 02:40:00,29.0,26.4,27.28,NNW,345,4.0,11.0,90,0.00,,,-99.99,Weather View 32 v60,2013-03-07 07:40:00,
2013-03-07 03:00:00,29.0,26.4,27.28,NNW,336,4.0,12.0,90,0.00,,,-99.99,Weather View 32 v60,2013-03-07 08:00:00,
2013-03-07 03:20:00,29.0,26.2,27.29,NW,324,6.0,13.0,89,0.00,,,-99.99,Weather View 32 v60,2013-03-07 08:20:00,
2013-03-07 03:40:00,28.9,26.1,27.30,NNW,339,4.0,14.0,89,0.00,,,-99.99,Weather View 32 v60,2013-03-07 08:40:00,
2013-03-07 04:20:00,28.7,25.9,27.29,NNW,345,3.0,14.0,89,0.00,,,-99.99,Weather View 32 v60,2013-03-07 09:20:00,
2013-03-07 04:40:00,28.6,25.8,27.30,NNW,346,4.0,12.0,89,0.00,,,-99.99,Weather View 32 v60,2013-03-07 09:40:00,
2013-03-07 05:00:00,28.6,25.8,27.30,NNW,340,4.0,12.0,89,0.00,,,-99.99,Weather View 32 v60,2013-03-07 10:00:00,
2013-03-07 05:20:00,28.4,25.6,27.31,NNW,345,3.0,12.0,89,0.00,,,-99.99,Weather View 32 v60,2013-03-07 10:20:00,
2013-03-07 05:40:00,28.5,25.7,27.32,NW,304,2.0,12.0,89,0.00,,,-99.99,Weather View 32 v60,2013-03-07 10:40:00,
2013-03-07 06:00:00,28.4,25.3,27.32,NW,319,4.0,12.0,88,0.00,,,-99.99,Weather View 32 v60,2013-03-07 11:00:00,
2013-03-07 06:20:00,28.4,25.3,27.34,NNW,334,6.0,12.0,88,0.00,,,-99.99,Weather View 32 v60,2013-03-07 11:20:00,
2013-03-07 06:40:00,28.5,24.8,27.34,NW,318,2.0,12.0,86,0.00,,,-99.99,Weather View 32 v60,2013-03-07 11:40:00,
2013-03-07 07:00:00,28.9,25.0,27.35,NW,306,6.0,12.0,85,0.00,,,-99.99,Weather View 32 v60,2013-03-07 12:00:00,
2013-03-07 07:20:00,29.4,25.2,27.35,NW,304,4.0,12.0,84,0.00,,,-99.99,Weather View 32 v60,2013-03-07 12:20:00,
2013-03-07 07:40:00,29.8,25.3,27.36,WNW,300,4.0,14.0,83,0.00,,,-99.99,Weather View 32 v60,2013-03-07 12:40:00,
2013-03-07 08:00:00,29.3,25.1,27.37,NNW,335,4.0,17.0,84,0.00,,,-99.99,Weather View 32 v60,2013-03-07 13:00:00,
2013-03-07 08:20:00,29.2,25.3,27.37,NW,320,4.0,17.0,85,0.00,,,-99.99,Weather View 32 v60,2013-03-07 13:20:00,
2013-03-07 08:40:00,29.2,25.5,27.37,NNW,337,6.0,17.0,86,0.00,,,-99.99,Weather View 32 v60,2013-03-07 13:40:00,
2013-03-07 09:20:00,29.6,25.9,27.37,NNW,329,4.0,15.0,86,0.00,,,-99.99,Weather View 32 v60,2013-03-07 14:20:00,
2013-03-07 09:40:00,29.4,25.7,27.37,NNW,341,3.0,15.0,86,0.00,,,-99.99,Weather View 32 v60,2013-03-07 14:40:00,
2013-03-07 10:00:00,29.9,25.4,27.38,North,6,2.0,17.0,83,0.00,,,-99.99,Weather View 32 v60,2013-03-07 15:00:00,
2013-03-07 10:20:00,31.1,25.0,27.39,NNW,333,8.0,17.0,78,0.00,,,-99.99,Weather View 32 v60,2013-03-07 15:20:00,
2013-03-07 10:40:00,31.7,25.6,27.39,North,353,7.0,19.0,78,0.00,,,-99.99,Weather View 32 v60,2013-03-07 15:40:00,
2013-03-07 11:00:00,32.3,25.3,27.39,NW,325,3.0,19.0,75,0.00,,,-99.99,Weather View 32 v60,2013-03-07 16:00:00,
2013-03-07 11:20:00,32.9,26.2,27.39,NNW,336,8.0,19.0,76,0.00,,,-99.99,Weather View 32 v60,2013-03-07 16:20:00,
2013-03-07 11:40:00,32.4,25.0,27.39,NNW,331,15.0,18.0,74,0.00,,,-99.99,Weather View 32 v60,2013-03-07 16:40:00,
2013-03-07 12:00:00,32.7,25.0,27.38,NNW,342,13.0,18.0,73,0.00,,,-99.99,Weather View 32 v60,2013-03-07 17:00:00,
2013-03-07 12:20:00,32.2,24.2,27.38,North,3,12.0,18.0,72,0.00,,,-99.99,Weather View 32 v60,2013-03-07 17:20:00,
2013-03-07 12:40:00,34.0,27.5,27.38,NNW,346,6.0,16.0,77,0.00,,,-99.99,Weather View 32 v60,2013-03-07 17:40:00,
2013-03-07 13:00:00,31.9,26.4,27.37,NW,306,6.0,15.0,80,0.00,,,-99.99,Weather View 32 v60,2013-03-07 18:00:00,
2013-03-07 13:20:00,31.7,27.1,27.37,West,265,1.0,14.0,83,0.01,,,-99.99,Weather View 32 v60,2013-03-07 18:20:00,
2013-03-07 13:40:00,35.8,29.0,27.37,NW,322,8.0,11.0,76,0.01,,,-99.99,Weather View 32 v60,2013-03-07 18:40:00,
2013-03-07 14:00:00,32.4,26.3,27.38,NNW,340,8.0,18.0,78,0.01,,,-99.99,Weather View 32 v60,2013-03-07 19:00:00,
2013-03-07 14:20:00,32.6,27.4,27.38,NNW,331,9.0,18.0,81,0.00,,,-99.99,Weather View 32 v60,2013-03-07 19:20:00,
2013-03-07 14:40:00,33.9,28.4,27.38,North,356,6.0,18.0,80,0.00,,,-99.99,Weather View 32 v60,2013-03-07 19:40:00,
2013-03-07 15:00:00,33.8,28.9,27.38,NNW,340,3.0,14.0,82,0.00,,,-99.99,Weather View 32 v60,2013-03-07 20:00:00,
2013-03-07 15:20:00,33.9,28.4,27.38,North,359,4.0,14.0,80,0.00,,,-99.99,Weather View 32 v60,2013-03-07 20:20:00,
2013-03-07 15:40:00,32.6,27.4,27.38,NNW,328,4.0,14.0,81,0.00,,,-99.99,Weather View 32 v60,2013-03-07 20:40:00,
2013-03-07 16:00:00,32.2,26.7,27.38,NNW,346,8.0,14.0,80,0.00,,,-99.99,Weather View 32 v60,2013-03-07 21:00:00,
2013-03-07 16:20:00,31.1,25.7,27.39,NNW,344,5.0,14.0,80,0.00,,,-99.99,Weather View 32 v60,2013-03-07 21:20:00,
2013-03-07 16:40:00,30.5,25.7,27.40,NNW,329,4.0,15.0,82,0.00,,,-99.99,Weather View 32 v60,2013-03-07 21:40:00,
2013-03-07 17:00:00,30.1,25.3,27.40,NNW,342,4.0,15.0,82,0.00,,,-99.99,Weather View 32 v60,2013-03-07 22:00:00,
2013-03-07 17:20:00,29.5,24.4,27.40,NNW,334,9.0,17.0,81,0.00,,,-99.99,Weather View 32 v60,2013-03-07 22:20:00,
2013-03-07 17:40:00,29.1,24.3,27.41,NNW,337,2.0,17.0,82,0.00,,,-99.99,Weather View 32 v60,2013-03-07 22:40:00,
2013-03-07 18:00:00,29.1,24.6,27.41,WNW,289,5.0,17.0,83,0.00,,,-99.99,Weather View 32 v60,2013-03-07 23:00:00,
2013-03-07 18:20:00,28.8,24.9,27.41,North,353,6.0,13.0,85,0.00,,,-99.99,Weather View 32 v60,2013-03-07 23:20:00,
2013-03-07 18:40:00,28.2,24.6,27.42,NNW,340,7.0,13.0,86,0.00,,,-99.99,Weather View 32 v60,2013-03-07 23:40:00,
2013-03-07 19:00:00,28.5,25.1,27.41,North,359,2.0,13.0,87,0.00,,,-99.99,Weather View 32 v60,2013-03-08 00:00:00,
2013-03-07 19:20:00,28.5,25.4,27.42,North,350,1.0,12.0,88,0.00,,,-99.99,Weather View 32 v60,2013-03-08 00:20:00,
2013-03-07 19:40:00,28.5,25.4,27.42,NW,307,1.0,12.0,88,0.00,,,-99.99,Weather View 32 v60,2013-03-08 00:40:00,
2013-03-07 20:00:00,28.6,25.5,27.42,NNW,342,2.0,12.0,88,0.00,,,-99.99,Weather View 32 v60,2013-03-08 01:00:00,
2013-03-07 20:20:00,28.3,25.5,27.42,NW,316,1.0,12.0,89,0.00,,,-99.99,Weather View 32 v60,2013-03-08 01:20:00,
2013-03-07 20:40:00,28.3,25.5,27.41,WNW,303,5.0,13.0,89,0.00,,,-99.99,Weather View 32 v60,2013-03-08 01:40:00,
2013-03-07 21:00:00,28.3,25.7,27.42,North,350,5.0,13.0,90,0.01,,,-99.99,Weather View 32 v60,2013-03-08 02:00:00,
2013-03-07 21:20:00,28.3,25.7,27.42,NNW,344,4.0,13.0,90,0.01,,,-99.99,Weather View 32 v60,2013-03-08 02:20:00,
2013-03-07 21:40:00,28.2,25.6,27.42,NNW,327,4.0,13.0,90,0.01,,,-99.99,Weather View 32 v60,2013-03-08 02:40:00,
2013-03-07 22:00:00,28.0,25.2,27.42,NNE,17,5.0,16.0,89,0.00,,,-99.99,Weather View 32 v60,2013-03-08 03:00:00,
2013-03-07 22:20:00,27.7,24.3,27.41,NNW,328,3.0,16.0,87,0.00,,,-99.99,Weather View 32 v60,2013-03-08 03:20:00,
2013-03-07 22:40:00,27.5,24.1,27.41,NNE,26,4.0,16.0,87,0.00,,,-99.99,Weather View 32 v60,2013-03-08 03:40:00,
2013-03-07 23:20:00,27.3,23.9,27.41,North,0,5.0,14.0,87,0.00,,,-99.99,Weather View 32 v60,2013-03-08 04:20:00,
2013-03-07 23:40:00,27.1,24.0,27.41,NW,319,9.0,14.0,88,0.00,,,-99.99,Weather View 32 v60,2013-03-08 04:40:00,